sensor_id;sensor_type;location;lat;lon;timestamp;temperature;humidity
484;DHT22;228;48.922;12.198;2023-10-08T04:00:33;17.60;65.00
484;DHT22;228;48.922;12.198;2023-10-08T04:03:06;17.60;65.00
484;DHT22;228;48.922;12.198;2023-10-08T04:05:38;17.60;65.20
484;DHT22;228;48.922;12.198;2023-10-08T04:08:27;17.60;65.10
484;DHT22;228;48.922;12.198;2023-10-08T04:11:24;17.70;65.10
484;DHT22;228;48.922;12.198;2023-10-08T04:13:58;17.80;64.50
484;DHT22;228;48.922;12.198;2023-10-08T04:16:32;17.70;64.10
484;DHT22;228;48.922;12.198;2023-10-08T04:19:03;17.90;64.10
484;DHT22;228;48.922;12.198;2023-10-08T04:21:29;17.80;64.70
484;DHT22;228;48.922;12.198;2023-10-08T04:24:00;17.90;63.80
484;DHT22;228;48.922;12.198;2023-10-08T04:26:30;17.90;64.00
484;DHT22;228;48.922;12.198;2023-10-08T04:28:59;17.90;63.80
484;DHT22;228;48.922;12.198;2023-10-08T04:31:31;17.80;64.60
484;DHT22;228;48.922;12.198;2023-10-08T04:34:07;17.70;65.10
484;DHT22;228;48.922;12.198;2023-10-08T04:36:43;17.70;65.10
484;DHT22;228;48.922;12.198;2023-10-08T04:39:15;17.60;65.50
484;DHT22;228;48.922;12.198;2023-10-08T04:41:42;17.40;66.20
484;DHT22;228;48.922;12.198;2023-10-08T04:44:09;17.30;67.10
484;DHT22;228;48.922;12.198;2023-10-08T04:46:43;17.20;67.90
484;DHT22;228;48.922;12.198;2023-10-08T04:49:15;16.80;69.10
484;DHT22;228;48.922;12.198;2023-10-08T04:52:05;16.20;70.00
484;DHT22;228;48.922;12.198;2023-10-08T04:54:39;16.00;71.70
484;DHT22;228;48.922;12.198;2023-10-08T04:57:07;16.10;71.10
484;DHT22;228;48.922;12.198;2023-10-08T04:59:44;16.40;70.60
484;DHT22;228;48.922;12.198;2023-10-08T05:02:12;16.40;69.40
484;DHT22;228;48.922;12.198;2023-10-08T05:04:57;16.80;68.50
484;DHT22;228;48.922;12.198;2023-10-08T05:07:35;16.90;67.80
484;DHT22;228;48.922;12.198;2023-10-08T05:10:11;16.80;67.70
484;DHT22;228;48.922;12.198;2023-10-08T05:12:57;17.10;67.30
484;DHT22;228;48.922;12.198;2023-10-08T05:15:29;17.10;67.10
484;DHT22;228;48.922;12.198;2023-10-08T05:17:59;17.00;67.70
484;DHT22;228;48.922;12.198;2023-10-08T05:20:40;17.00;67.90
484;DHT22;228;48.922;12.198;2023-10-08T05:23:11;16.80;68.40
484;DHT22;228;48.922;12.198;2023-10-08T05:26:07;16.90;68.60
484;DHT22;228;48.922;12.198;2023-10-08T05:28:33;17.00;68.00
484;DHT22;228;48.922;12.198;2023-10-08T05:31:08;17.10;67.70
484;DHT22;228;48.922;12.198;2023-10-08T05:33:57;17.10;67.60
484;DHT22;228;48.922;12.198;2023-10-08T05:36:42;17.00;67.50
484;DHT22;228;48.922;12.198;2023-10-08T05:39:27;16.80;68.00
484;DHT22;228;48.922;12.198;2023-10-08T05:42:09;17.10;68.00
484;DHT22;228;48.922;12.198;2023-10-08T05:44:53;17.20;67.80
484;DHT22;228;48.922;12.198;2023-10-08T05:47:51;17.20;67.50
484;DHT22;228;48.922;12.198;2023-10-08T05:50:33;17.20;67.50
484;DHT22;228;48.922;12.198;2023-10-08T05:53:08;17.50;67.40
484;DHT22;228;48.922;12.198;2023-10-08T05:55:55;17.50;66.60
484;DHT22;228;48.922;12.198;2023-10-08T05:58:41;17.60;66.70
484;DHT22;228;48.922;12.198;2023-10-08T06:01:26;17.30;66.80
484;DHT22;228;48.922;12.198;2023-10-08T06:04:07;17.30;66.80
484;DHT22;228;48.922;12.198;2023-10-08T06:06:52;17.40;66.90
484;DHT22;228;48.922;12.198;2023-10-08T06:09:38;17.30;67.00
484;DHT22;228;48.922;12.198;2023-10-08T06:12:06;17.20;67.30
484;DHT22;228;48.922;12.198;2023-10-08T06:14:45;17.30;66.50
484;DHT22;228;48.922;12.198;2023-10-08T06:17:30;17.50;66.20
484;DHT22;228;48.922;12.198;2023-10-08T06:20:15;17.70;65.60
484;DHT22;228;48.922;12.198;2023-10-08T06:22:43;17.60;66.00
484;DHT22;228;48.922;12.198;2023-10-08T06:25:09;17.40;66.50
484;DHT22;228;48.922;12.198;2023-10-08T06:27:52;17.40;66.70
484;DHT22;228;48.922;12.198;2023-10-08T06:30:22;17.50;67.20
484;DHT22;228;48.922;12.198;2023-10-08T06:32:51;17.50;67.10
484;DHT22;228;48.922;12.198;2023-10-08T06:35:20;17.50;67.50
484;DHT22;228;48.922;12.198;2023-10-08T06:37:51;17.70;67.40
484;DHT22;228;48.922;12.198;2023-10-08T06:40:21;17.70;67.30
484;DHT22;228;48.922;12.198;2023-10-08T06:43:03;17.50;67.70
484;DHT22;228;48.922;12.198;2023-10-08T06:45:39;17.50;68.30
484;DHT22;228;48.922;12.198;2023-10-08T06:48:06;17.50;68.10
484;DHT22;228;48.922;12.198;2023-10-08T06:50:33;17.30;68.60
484;DHT22;228;48.922;12.198;2023-10-08T06:53:03;17.30;69.10
484;DHT22;228;48.922;12.198;2023-10-08T06:55:34;17.30;68.80
484;DHT22;228;48.922;12.198;2023-10-08T06:58:02;17.30;68.40
484;DHT22;228;48.922;12.198;2023-10-08T07:00:40;17.30;68.40
484;DHT22;228;48.922;12.198;2023-10-08T07:03:13;17.50;68.40
484;DHT22;228;48.922;12.198;2023-10-08T07:05:50;17.50;67.90
484;DHT22;228;48.922;12.198;2023-10-08T07:08:30;17.50;67.40
484;DHT22;228;48.922;12.198;2023-10-08T07:11:02;17.70;67.20
484;DHT22;228;48.922;12.198;2023-10-08T07:13:32;18.10;66.90
484;DHT22;228;48.922;12.198;2023-10-08T07:15:59;18.30;65.40
484;DHT22;228;48.922;12.198;2023-10-08T07:18:29;18.20;66.00
484;DHT22;228;48.922;12.198;2023-10-08T07:20:59;18.20;65.40
484;DHT22;228;48.922;12.198;2023-10-08T07:23:38;18.20;65.20
484;DHT22;228;48.922;12.198;2023-10-08T07:26:25;17.90;66.50
484;DHT22;228;48.922;12.198;2023-10-08T07:28:52;17.80;66.50
484;DHT22;228;48.922;12.198;2023-10-08T07:31:23;18.10;66.60
484;DHT22;228;48.922;12.198;2023-10-08T07:33:54;18.20;66.40
484;DHT22;228;48.922;12.198;2023-10-08T07:36:54;18.20;66.40
484;DHT22;228;48.922;12.198;2023-10-08T07:39:22;18.20;65.90
484;DHT22;228;48.922;12.198;2023-10-08T07:42:08;18.30;66.20
484;DHT22;228;48.922;12.198;2023-10-08T07:44:41;18.30;66.30
484;DHT22;228;48.922;12.198;2023-10-08T07:47:07;18.50;65.80
484;DHT22;228;48.922;12.198;2023-10-08T07:49:37;18.40;65.80
484;DHT22;228;48.922;12.198;2023-10-08T07:52:04;18.50;65.50
484;DHT22;228;48.922;12.198;2023-10-08T07:54:30;18.50;65.30
484;DHT22;228;48.922;12.198;2023-10-08T07:57:03;18.50;65.80
484;DHT22;228;48.922;12.198;2023-10-08T07:59:39;18.50;66.10
484;DHT22;228;48.922;12.198;2023-10-08T08:02:20;18.40;65.60
484;DHT22;228;48.922;12.198;2023-10-08T08:04:53;18.60;65.70
484;DHT22;228;48.922;12.198;2023-10-08T08:07:19;18.90;65.30
484;DHT22;228;48.922;12.198;2023-10-08T08:09:47;19.20;64.70
484;DHT22;228;48.922;12.198;2023-10-08T08:12:25;19.30;64.30
484;DHT22;228;48.922;12.198;2023-10-08T08:14:52;19.30;64.10
484;DHT22;228;48.922;12.198;2023-10-08T08:17:19;19.10;63.90
484;DHT22;228;48.922;12.198;2023-10-08T08:19:47;19.10;65.10
484;DHT22;228;48.922;12.198;2023-10-08T08:22:14;19.10;65.00
484;DHT22;228;48.922;12.198;2023-10-08T08:24:56;19.00;64.60
484;DHT22;228;48.922;12.198;2023-10-08T08:27:30;19.20;64.50
484;DHT22;228;48.922;12.198;2023-10-08T08:30:00;19.20;64.50
484;DHT22;228;48.922;12.198;2023-10-08T08:32:42;19.20;64.80
484;DHT22;228;48.922;12.198;2023-10-08T08:35:13;19.30;64.80
484;DHT22;228;48.922;12.198;2023-10-08T08:37:43;19.30;64.30
484;DHT22;228;48.922;12.198;2023-10-08T08:40:12;19.20;64.70
484;DHT22;228;48.922;12.198;2023-10-08T08:42:50;19.30;64.60
484;DHT22;228;48.922;12.198;2023-10-08T08:45:19;19.30;65.40
484;DHT22;228;48.922;12.198;2023-10-08T08:47:50;19.30;64.90
484;DHT22;228;48.922;12.198;2023-10-08T08:50:17;19.40;64.90
484;DHT22;228;48.922;12.198;2023-10-08T08:52:46;19.90;64.00
484;DHT22;228;48.922;12.198;2023-10-08T08:55:13;20.00;63.20
484;DHT22;228;48.922;12.198;2023-10-08T08:57:46;19.90;62.90
484;DHT22;228;48.922;12.198;2023-10-08T09:00:14;19.90;63.90
484;DHT22;228;48.922;12.198;2023-10-08T09:02:41;20.30;62.50
484;DHT22;228;48.922;12.198;2023-10-08T09:05:07;20.40;62.00
484;DHT22;228;48.922;12.198;2023-10-08T09:08:04;20.20;61.90
484;DHT22;228;48.922;12.198;2023-10-08T09:10:36;20.30;62.20
484;DHT22;228;48.922;12.198;2023-10-08T09:13:20;20.50;61.10
484;DHT22;228;48.922;12.198;2023-10-08T09:15:50;20.60;61.20
484;DHT22;228;48.922;12.198;2023-10-08T09:18:17;20.50;61.00
484;DHT22;228;48.922;12.198;2023-10-08T09:20:43;20.60;61.40
484;DHT22;228;48.922;12.198;2023-10-08T09:23:14;20.50;61.50
484;DHT22;228;48.922;12.198;2023-10-08T09:25:42;20.60;61.80
484;DHT22;228;48.922;12.198;2023-10-08T09:28:08;21.00;62.00
484;DHT22;228;48.922;12.198;2023-10-08T09:30:35;21.10;60.80
484;DHT22;228;48.922;12.198;2023-10-08T09:33:05;21.20;61.20
484;DHT22;228;48.922;12.198;2023-10-08T09:35:32;20.60;62.50
484;DHT22;228;48.922;12.198;2023-10-08T09:38:03;20.20;64.00
484;DHT22;228;48.922;12.198;2023-10-08T09:40:31;20.50;64.00
484;DHT22;228;48.922;12.198;2023-10-08T09:42:57;20.20;64.00
484;DHT22;228;48.922;12.198;2023-10-08T09:45:25;19.70;65.30
484;DHT22;228;48.922;12.198;2023-10-08T09:47:55;19.20;66.70
484;DHT22;228;48.922;12.198;2023-10-08T09:50:27;18.90;68.10
484;DHT22;228;48.922;12.198;2023-10-08T09:55:30;19.30;68.40
484;DHT22;228;48.922;12.198;2023-10-08T09:57:56;19.10;68.10
484;DHT22;228;48.922;12.198;2023-10-08T10:00:24;19.10;68.40
484;DHT22;228;48.922;12.198;2023-10-08T10:03:02;19.00;68.80
484;DHT22;228;48.922;12.198;2023-10-08T10:05:34;18.90;68.90
484;DHT22;228;48.922;12.198;2023-10-08T10:08:03;19.00;69.00
484;DHT22;228;48.922;12.198;2023-10-08T10:10:37;19.40;68.80
484;DHT22;228;48.922;12.198;2023-10-08T10:13:12;19.80;67.40
484;DHT22;228;48.922;12.198;2023-10-08T10:15:42;20.20;65.90
484;DHT22;228;48.922;12.198;2023-10-08T10:18:27;20.80;64.90
484;DHT22;228;48.922;12.198;2023-10-08T10:21:25;20.90;63.50
484;DHT22;228;48.922;12.198;2023-10-08T10:23:53;20.90;63.50
484;DHT22;228;48.922;12.198;2023-10-08T10:31:43;21.20;62.40
484;DHT22;228;48.922;12.198;2023-10-08T10:34:18;21.30;63.30
484;DHT22;228;48.922;12.198;2023-10-08T10:36:47;21.10;62.60
484;DHT22;228;48.922;12.198;2023-10-08T10:39:22;21.50;63.20
484;DHT22;228;48.922;12.198;2023-10-08T10:41:58;21.80;62.70
484;DHT22;228;48.922;12.198;2023-10-08T10:44:28;21.90;62.40
484;DHT22;228;48.922;12.198;2023-10-08T10:46:58;22.00;61.00
484;DHT22;228;48.922;12.198;2023-10-08T10:49:43;21.70;61.80
484;DHT22;228;48.922;12.198;2023-10-08T10:52:29;21.90;60.90
484;DHT22;228;48.922;12.198;2023-10-08T10:55:07;22.30;60.90
484;DHT22;228;48.922;12.198;2023-10-08T10:57:57;23.10;59.40
484;DHT22;228;48.922;12.198;2023-10-08T11:00:35;22.90;58.30
484;DHT22;228;48.922;12.198;2023-10-08T11:03:04;23.10;58.50
484;DHT22;228;48.922;12.198;2023-10-08T11:05:56;23.00;58.90
484;DHT22;228;48.922;12.198;2023-10-08T11:08:26;23.10;58.00
484;DHT22;228;48.922;12.198;2023-10-08T11:10:53;23.10;58.60
484;DHT22;228;48.922;12.198;2023-10-08T11:13:24;22.80;58.00
484;DHT22;228;48.922;12.198;2023-10-08T11:15:54;23.00;59.10
484;DHT22;228;48.922;12.198;2023-10-08T11:18:26;23.80;57.70
484;DHT22;228;48.922;12.198;2023-10-08T11:21:05;23.60;57.30
484;DHT22;228;48.922;12.198;2023-10-08T11:23:44;23.50;57.50
484;DHT22;228;48.922;12.198;2023-10-08T11:26:13;24.70;56.10
484;DHT22;228;48.922;12.198;2023-10-08T11:28:42;26.10;52.50
484;DHT22;228;48.922;12.198;2023-10-08T11:31:10;26.40;51.80
484;DHT22;228;48.922;12.198;2023-10-08T11:33:44;26.70;49.90
484;DHT22;228;48.922;12.198;2023-10-08T11:36:23;26.60;50.30
484;DHT22;228;48.922;12.198;2023-10-08T11:38:57;26.10;50.80
484;DHT22;228;48.922;12.198;2023-10-08T11:41:33;25.40;52.20
484;DHT22;228;48.922;12.198;2023-10-08T11:44:18;23.80;54.60
484;DHT22;228;48.922;12.198;2023-10-08T11:46:49;23.40;55.50
484;DHT22;228;48.922;12.198;2023-10-08T11:49:19;22.40;58.00
484;DHT22;228;48.922;12.198;2023-10-08T11:51:45;21.90;59.90
484;DHT22;228;48.922;12.198;2023-10-08T11:54:12;21.50;61.50
484;DHT22;228;48.922;12.198;2023-10-08T11:56:38;21.50;61.60
484;DHT22;228;48.922;12.198;2023-10-08T11:59:05;21.30;62.00
484;DHT22;228;48.922;12.198;2023-10-08T12:01:35;21.50;63.70
484;DHT22;228;48.922;12.198;2023-10-08T12:04:04;22.00;62.90
484;DHT22;228;48.922;12.198;2023-10-08T12:06:30;22.00;61.20
484;DHT22;228;48.922;12.198;2023-10-08T12:08:57;21.50;62.40
484;DHT22;228;48.922;12.198;2023-10-08T12:11:26;21.50;63.10
484;DHT22;228;48.922;12.198;2023-10-08T12:13:59;21.30;62.60
484;DHT22;228;48.922;12.198;2023-10-08T12:16:25;20.90;63.80
484;DHT22;228;48.922;12.198;2023-10-08T12:18:57;21.20;64.10
484;DHT22;228;48.922;12.198;2023-10-08T12:21:26;21.40;63.70
484;DHT22;228;48.922;12.198;2023-10-08T12:23:56;21.30;63.80
484;DHT22;228;48.922;12.198;2023-10-08T12:26:32;21.70;63.50
484;DHT22;228;48.922;12.198;2023-10-08T12:28:57;22.20;61.30
484;DHT22;228;48.922;12.198;2023-10-08T12:31:24;23.00;58.70
484;DHT22;228;48.922;12.198;2023-10-08T12:33:51;23.10;58.20
484;DHT22;228;48.922;12.198;2023-10-08T12:36:23;22.50;59.30
484;DHT22;228;48.922;12.198;2023-10-08T12:38:50;22.40;60.40
484;DHT22;228;48.922;12.198;2023-10-08T12:41:26;22.70;59.70
484;DHT22;228;48.922;12.198;2023-10-08T12:43:53;23.40;58.10
484;DHT22;228;48.922;12.198;2023-10-08T12:46:20;22.80;58.00
484;DHT22;228;48.922;12.198;2023-10-08T12:48:51;22.30;61.00
484;DHT22;228;48.922;12.198;2023-10-08T12:51:21;22.40;61.80
484;DHT22;228;48.922;12.198;2023-10-08T12:53:51;22.80;59.80
484;DHT22;228;48.922;12.198;2023-10-08T12:56:25;23.40;58.10
484;DHT22;228;48.922;12.198;2023-10-08T12:58:58;23.50;58.10
484;DHT22;228;48.922;12.198;2023-10-08T13:01:24;24.30;55.80
484;DHT22;228;48.922;12.198;2023-10-08T13:03:54;24.50;55.40
484;DHT22;228;48.922;12.198;2023-10-08T13:06:26;23.90;56.40
484;DHT22;228;48.922;12.198;2023-10-08T13:08:56;23.70;57.00
484;DHT22;228;48.922;12.198;2023-10-08T13:11:23;24.10;56.20
484;DHT22;228;48.922;12.198;2023-10-08T13:13:54;25.20;54.10
484;DHT22;228;48.922;12.198;2023-10-08T13:16:24;26.50;51.90
484;DHT22;228;48.922;12.198;2023-10-08T13:18:51;27.10;49.10
484;DHT22;228;48.922;12.198;2023-10-08T13:21:18;26.30;50.50
484;DHT22;228;48.922;12.198;2023-10-08T13:23:51;25.80;52.10
484;DHT22;228;48.922;12.198;2023-10-08T13:26:17;24.60;54.70
484;DHT22;228;48.922;12.198;2023-10-08T13:28:44;24.40;55.30
484;DHT22;228;48.922;12.198;2023-10-08T13:31:10;24.10;55.60
484;DHT22;228;48.922;12.198;2023-10-08T13:33:41;24.20;56.00
484;DHT22;228;48.922;12.198;2023-10-08T13:36:09;25.10;55.00
484;DHT22;228;48.922;12.198;2023-10-08T13:38:36;26.10;52.20
484;DHT22;228;48.922;12.198;2023-10-08T13:41:05;26.40;51.30
484;DHT22;228;48.922;12.198;2023-10-08T13:43:47;26.90;50.10
484;DHT22;228;48.922;12.198;2023-10-08T13:46:18;27.40;48.70
484;DHT22;228;48.922;12.198;2023-10-08T13:48:47;27.40;48.60
484;DHT22;228;48.922;12.198;2023-10-08T13:51:18;26.40;49.70
484;DHT22;228;48.922;12.198;2023-10-08T13:53:55;25.60;52.80
484;DHT22;228;48.922;12.198;2023-10-08T13:56:33;25.80;52.50
484;DHT22;228;48.922;12.198;2023-10-08T13:58:59;26.20;51.30
484;DHT22;228;48.922;12.198;2023-10-08T14:01:52;26.40;51.40
484;DHT22;228;48.922;12.198;2023-10-08T14:04:19;27.80;49.00
484;DHT22;228;48.922;12.198;2023-10-08T14:06:46;28.60;46.00
484;DHT22;228;48.922;12.198;2023-10-08T14:09:24;28.70;45.80
484;DHT22;228;48.922;12.198;2023-10-08T14:12:03;28.80;45.60
484;DHT22;228;48.922;12.198;2023-10-08T14:14:29;28.50;45.70
484;DHT22;228;48.922;12.198;2023-10-08T14:16:56;28.00;46.70
484;DHT22;228;48.922;12.198;2023-10-08T14:19:26;27.40;48.40
484;DHT22;228;48.922;12.198;2023-10-08T14:22:06;27.40;48.60
484;DHT22;228;48.922;12.198;2023-10-08T14:24:34;27.20;48.40
484;DHT22;228;48.922;12.198;2023-10-08T14:27:05;27.10;48.90
484;DHT22;228;48.922;12.198;2023-10-08T14:29:38;25.70;51.40
484;DHT22;228;48.922;12.198;2023-10-08T14:32:09;24.70;54.10
484;DHT22;228;48.922;12.198;2023-10-08T14:34:36;24.50;55.40
484;DHT22;228;48.922;12.198;2023-10-08T14:37:22;25.20;54.10
484;DHT22;228;48.922;12.198;2023-10-08T14:40:07;24.40;54.70
484;DHT22;228;48.922;12.198;2023-10-08T14:42:51;24.20;56.80
484;DHT22;228;48.922;12.198;2023-10-08T14:45:30;24.30;56.30
484;DHT22;228;48.922;12.198;2023-10-08T14:48:01;23.80;57.10
484;DHT22;228;48.922;12.198;2023-10-08T14:50:28;22.80;58.70
484;DHT22;228;48.922;12.198;2023-10-08T14:52:57;22.10;61.00
484;DHT22;228;48.922;12.198;2023-10-08T14:55:25;21.30;63.50
484;DHT22;228;48.922;12.198;2023-10-08T14:57:52;21.30;64.10
484;DHT22;228;48.922;12.198;2023-10-08T15:00:22;21.00;65.40
484;DHT22;228;48.922;12.198;2023-10-08T15:02:55;21.10;65.40
484;DHT22;228;48.922;12.198;2023-10-08T15:05:22;20.90;66.40
484;DHT22;228;48.922;12.198;2023-10-08T15:07:51;20.90;66.60
484;DHT22;228;48.922;12.198;2023-10-08T15:10:18;20.50;67.70
484;DHT22;228;48.922;12.198;2023-10-08T15:12:45;20.50;68.70
484;DHT22;228;48.922;12.198;2023-10-08T15:15:11;20.30;69.20
484;DHT22;228;48.922;12.198;2023-10-08T15:17:45;20.20;69.50
484;DHT22;228;48.922;12.198;2023-10-08T15:20:13;19.80;70.00
484;DHT22;228;48.922;12.198;2023-10-08T15:22:49;20.20;69.80
484;DHT22;228;48.922;12.198;2023-10-08T15:25:17;20.40;68.80
484;DHT22;228;48.922;12.198;2023-10-08T15:27:44;20.20;68.30
484;DHT22;228;48.922;12.198;2023-10-08T15:30:12;19.70;70.10
484;DHT22;228;48.922;12.198;2023-10-08T15:32:42;19.70;70.30
484;DHT22;228;48.922;12.198;2023-10-08T15:35:18;19.30;71.00
484;DHT22;228;48.922;12.198;2023-10-08T15:37:50;19.30;71.90
484;DHT22;228;48.922;12.198;2023-10-08T15:40:16;19.20;71.80
484;DHT22;228;48.922;12.198;2023-10-08T15:42:54;19.50;71.70
484;DHT22;228;48.922;12.198;2023-10-08T15:45:21;19.30;71.70
484;DHT22;228;48.922;12.198;2023-10-08T15:47:48;19.50;71.90
484;DHT22;228;48.922;12.198;2023-10-08T15:50:18;19.50;71.20
484;DHT22;228;48.922;12.198;2023-10-08T15:52:47;19.30;72.50
484;DHT22;228;48.922;12.198;2023-10-08T15:55:13;19.20;72.40
484;DHT22;228;48.922;12.198;2023-10-08T15:57:40;19.00;72.90
484;DHT22;228;48.922;12.198;2023-10-08T16:00:07;19.40;72.10
484;DHT22;228;48.922;12.198;2023-10-08T16:02:34;19.30;71.90
484;DHT22;228;48.922;12.198;2023-10-08T16:05:00;19.50;71.70
484;DHT22;228;48.922;12.198;2023-10-08T16:07:26;19.50;71.60
484;DHT22;228;48.922;12.198;2023-10-08T16:09:52;19.80;70.80
484;DHT22;228;48.922;12.198;2023-10-08T16:12:17;19.80;70.30
484;DHT22;228;48.922;12.198;2023-10-08T16:14:44;19.70;70.30
484;DHT22;228;48.922;12.198;2023-10-08T16:17:10;19.90;70.10
484;DHT22;228;48.922;12.198;2023-10-08T16:19:39;19.50;71.30
484;DHT22;228;48.922;12.198;2023-10-08T16:22:06;19.20;72.00
484;DHT22;228;48.922;12.198;2023-10-08T16:24:32;19.10;72.60
484;DHT22;228;48.922;12.198;2023-10-08T16:26:58;19.20;72.30
484;DHT22;228;48.922;12.198;2023-10-08T16:29:24;19.10;72.80
484;DHT22;228;48.922;12.198;2023-10-08T16:31:50;19.20;72.80
484;DHT22;228;48.922;12.198;2023-10-08T16:34:16;19.10;72.80
484;DHT22;228;48.922;12.198;2023-10-08T16:36:42;19.00;73.50
484;DHT22;228;48.922;12.198;2023-10-08T16:39:12;19.10;73.20
484;DHT22;228;48.922;12.198;2023-10-08T16:41:46;19.20;73.00
484;DHT22;228;48.922;12.198;2023-10-08T16:44:12;19.20;72.60
484;DHT22;228;48.922;12.198;2023-10-08T16:46:39;19.20;72.70
484;DHT22;228;48.922;12.198;2023-10-08T16:49:05;18.90;73.00
484;DHT22;228;48.922;12.198;2023-10-08T16:51:31;18.70;74.00
484;DHT22;228;48.922;12.198;2023-10-08T16:53:59;18.30;76.20
484;DHT22;228;48.922;12.198;2023-10-08T16:56:28;18.40;76.20
484;DHT22;228;48.922;12.198;2023-10-08T16:58:57;18.40;76.60
484;DHT22;228;48.922;12.198;2023-10-08T17:01:23;18.50;76.30
484;DHT22;228;48.922;12.198;2023-10-08T17:03:50;18.80;75.60
484;DHT22;228;48.922;12.198;2023-10-08T17:06:16;18.80;75.00
484;DHT22;228;48.922;12.198;2023-10-08T17:08:43;18.80;74.60
484;DHT22;228;48.922;12.198;2023-10-08T17:11:11;18.70;74.60
484;DHT22;228;48.922;12.198;2023-10-08T17:13:39;18.50;75.00
484;DHT22;228;48.922;12.198;2023-10-08T17:16:08;18.50;74.90
484;DHT22;228;48.922;12.198;2023-10-08T17:18:38;18.20;75.80
484;DHT22;228;48.922;12.198;2023-10-08T17:21:04;18.30;76.40
484;DHT22;228;48.922;12.198;2023-10-08T17:23:31;18.40;76.20
484;DHT22;228;48.922;12.198;2023-10-08T17:25:57;18.60;75.40
484;DHT22;228;48.922;12.198;2023-10-08T17:28:27;18.60;75.30
484;DHT22;228;48.922;12.198;2023-10-08T17:30:54;18.40;76.20
484;DHT22;228;48.922;12.198;2023-10-08T17:33:22;18.20;76.90
484;DHT22;228;48.922;12.198;2023-10-08T17:35:48;18.20;77.40
484;DHT22;228;48.922;12.198;2023-10-08T17:38:14;18.10;77.60
484;DHT22;228;48.922;12.198;2023-10-08T17:40:42;18.10;78.10
484;DHT22;228;48.922;12.198;2023-10-08T17:43:11;17.90;77.40
484;DHT22;228;48.922;12.198;2023-10-08T17:45:39;17.90;78.60
484;DHT22;228;48.922;12.198;2023-10-08T17:48:07;18.00;78.80
484;DHT22;228;48.922;12.198;2023-10-08T17:50:35;18.20;78.20
484;DHT22;228;48.922;12.198;2023-10-08T17:53:04;18.50;76.90
484;DHT22;228;48.922;12.198;2023-10-08T17:55:32;18.30;77.20
484;DHT22;228;48.922;12.198;2023-10-08T17:58:02;18.50;76.50
484;DHT22;228;48.922;12.198;2023-10-08T18:00:29;18.50;76.20
484;DHT22;228;48.922;12.198;2023-10-08T18:03:00;18.50;76.10
484;DHT22;228;48.922;12.198;2023-10-08T18:05:26;18.40;77.00
484;DHT22;228;48.922;12.198;2023-10-08T18:07:53;18.40;76.60
484;DHT22;228;48.922;12.198;2023-10-08T18:10:22;18.20;77.50
484;DHT22;228;48.922;12.198;2023-10-08T18:12:50;18.10;78.20
484;DHT22;228;48.922;12.198;2023-10-08T18:15:22;18.20;77.80
484;DHT22;228;48.922;12.198;2023-10-08T18:17:55;18.30;77.40
484;DHT22;228;48.922;12.198;2023-10-08T18:20:22;18.30;77.20
484;DHT22;228;48.922;12.198;2023-10-08T18:23:02;18.40;77.10
484;DHT22;228;48.922;12.198;2023-10-08T18:25:28;18.10;77.90
484;DHT22;228;48.922;12.198;2023-10-08T18:27:57;18.00;78.10
484;DHT22;228;48.922;12.198;2023-10-08T18:30:24;17.80;79.20
484;DHT22;228;48.922;12.198;2023-10-08T18:32:54;17.60;80.30
484;DHT22;228;48.922;12.198;2023-10-08T18:35:20;17.60;80.80
484;DHT22;228;48.922;12.198;2023-10-08T18:37:47;17.10;83.00
484;DHT22;228;48.922;12.198;2023-10-08T18:40:15;17.00;84.50
484;DHT22;228;48.922;12.198;2023-10-08T18:42:44;16.90;85.00
484;DHT22;228;48.922;12.198;2023-10-08T18:45:13;17.00;85.10
484;DHT22;228;48.922;12.198;2023-10-08T18:47:42;17.50;83.90
484;DHT22;228;48.922;12.198;2023-10-08T18:50:09;17.60;83.20
484;DHT22;228;48.922;12.198;2023-10-08T18:52:38;17.60;82.50
484;DHT22;228;48.922;12.198;2023-10-08T18:55:05;17.70;82.20
484;DHT22;228;48.922;12.198;2023-10-08T18:57:34;17.70;82.20
484;DHT22;228;48.922;12.198;2023-10-08T19:00:00;17.70;82.00
484;DHT22;228;48.922;12.198;2023-10-08T19:02:34;17.70;82.00
484;DHT22;228;48.922;12.198;2023-10-08T19:05:02;17.30;83.40
484;DHT22;228;48.922;12.198;2023-10-08T19:07:34;17.20;84.50
484;DHT22;228;48.922;12.198;2023-10-08T19:10:01;17.30;84.20
484;DHT22;228;48.922;12.198;2023-10-08T19:12:31;17.50;83.60
484;DHT22;228;48.922;12.198;2023-10-08T19:14:58;17.60;83.60
484;DHT22;228;48.922;12.198;2023-10-08T19:17:26;17.60;82.30
484;DHT22;228;48.922;12.198;2023-10-08T19:19:52;17.50;83.10
484;DHT22;228;48.922;12.198;2023-10-08T19:22:18;17.20;84.00
484;DHT22;228;48.922;12.198;2023-10-08T19:24:44;17.30;84.40
484;DHT22;228;48.922;12.198;2023-10-08T19:27:10;17.00;85.00
484;DHT22;228;48.922;12.198;2023-10-08T19:29:37;17.00;85.40
484;DHT22;228;48.922;12.198;2023-10-08T19:32:04;17.20;84.90
484;DHT22;228;48.922;12.198;2023-10-08T19:34:30;17.50;83.80
484;DHT22;228;48.922;12.198;2023-10-08T19:36:57;17.70;82.90
484;DHT22;228;48.922;12.198;2023-10-08T19:39:23;17.80;82.20
484;DHT22;228;48.922;12.198;2023-10-08T19:41:49;17.70;82.20
484;DHT22;228;48.922;12.198;2023-10-08T19:44:14;17.50;82.90
484;DHT22;228;48.922;12.198;2023-10-08T19:46:41;17.30;84.10
484;DHT22;228;48.922;12.198;2023-10-08T19:49:07;17.30;84.20
484;DHT22;228;48.922;12.198;2023-10-08T19:51:37;17.30;83.90
484;DHT22;228;48.922;12.198;2023-10-08T19:54:05;17.40;84.10
484;DHT22;228;48.922;12.198;2023-10-08T19:56:31;17.40;84.00
484;DHT22;228;48.922;12.198;2023-10-08T19:58:57;17.50;83.70
484;DHT22;228;48.922;12.198;2023-10-08T20:01:23;17.70;84.40
484;DHT22;228;48.922;12.198;2023-10-08T20:03:49;17.80;82.50
484;DHT22;228;48.922;12.198;2023-10-08T20:06:15;17.90;82.00
484;DHT22;228;48.922;12.198;2023-10-08T20:08:41;17.80;82.60
484;DHT22;228;48.922;12.198;2023-10-08T20:11:10;17.90;82.00
484;DHT22;228;48.922;12.198;2023-10-08T20:13:40;17.90;81.90
484;DHT22;228;48.922;12.198;2023-10-08T20:16:10;17.80;82.10
484;DHT22;228;48.922;12.198;2023-10-08T20:18:36;17.70;81.80
484;DHT22;228;48.922;12.198;2023-10-08T20:21:02;17.70;81.80
484;DHT22;228;48.922;12.198;2023-10-08T20:23:31;17.70;82.20
484;DHT22;228;48.922;12.198;2023-10-08T20:26:12;17.80;82.20
484;DHT22;228;48.922;12.198;2023-10-08T20:28:40;17.90;81.80
484;DHT22;228;48.922;12.198;2023-10-08T20:31:15;17.90;81.30
484;DHT22;228;48.922;12.198;2023-10-08T20:33:44;17.70;81.80
484;DHT22;228;48.922;12.198;2023-10-08T20:36:14;17.60;82.20
484;DHT22;228;48.922;12.198;2023-10-08T20:38:43;17.60;82.50
484;DHT22;228;48.922;12.198;2023-10-08T20:41:18;17.50;82.40
484;DHT22;228;48.922;12.198;2023-10-08T20:43:47;16.90;84.80
484;DHT22;228;48.922;12.198;2023-10-08T20:46:19;16.60;87.00
484;DHT22;228;48.922;12.198;2023-10-08T20:48:45;16.80;86.80
484;DHT22;228;48.922;12.198;2023-10-08T20:51:12;16.70;87.10